Time;durP1;ratioP1;P1;durP2;ratioP2;P2;SDS_P1;SDS_P2;PMS_P1;PMS_P2;Temp;Humidity;BMP_temperature;BMP_pressure;BME280_temperature;BME280_humidity;BME280_pressure;Samples;Min_cycle;Max_cycle;Signal;HPM_P1;HPM_P2
2022/03/09 00:01:15;;;;;;;7.72;4.42;;;;;;;-2.72;71.23;99667.56;1730991;81;20954;-77
2022/03/09 00:03:42;;;;;;;8.08;3.58;;;;;;;-2.74;70.72;99665.61;1719916;80;21518;-76
2022/03/09 00:06:10;;;;;;;14.30;6.20;;;;;;;-2.83;70.99;99660.22;1711923;81;21054;-76
2022/03/09 00:08:37;;;;;;;9.90;4.42;;;;;;;-2.87;71.06;99665.78;1712834;81;20966;-77
2022/03/09 00:11:04;;;;;;;6.60;4.20;;;;;;;-2.90;71.13;99664.34;1743623;82;21451;-77
2022/03/09 00:13:32;;;;;;;7.58;3.83;;;;;;;-2.87;71.20;99666.62;1726476;81;21027;-76
2022/03/09 00:15:59;;;;;;;6.95;3.90;;;;;;;-2.89;70.93;99663.83;1724792;81;21022;-76
2022/03/09 00:18:27;;;;;;;6.83;3.65;;;;;;;-2.95;71.14;99658.84;1722257;81;21534;-75
2022/03/09 00:20:55;;;;;;;6.75;3.40;;;;;;;-2.97;71.12;99660.39;1718130;81;21420;-76
2022/03/09 00:23:22;;;;;;;5.70;3.30;;;;;;;-3.00;71.39;99662.73;1728827;81;21479;-76
2022/03/09 00:25:49;;;;;;;6.25;3.45;;;;;;;-2.97;71.67;99663.63;1723323;81;21546;-76
2022/03/09 00:28:16;;;;;;;9.05;3.60;;;;;;;-3.03;72.73;99663.17;1717555;83;21021;-76
2022/03/09 00:30:43;;;;;;;6.50;3.35;;;;;;;-3.09;74.23;99667.61;1715695;83;20997;-76
2022/03/09 00:33:10;;;;;;;6.62;3.37;;;;;;;-3.08;75.08;99668.73;1715235;83;21041;-76
2022/03/09 00:35:38;;;;;;;6.55;3.52;;;;;;;-3.09;75.28;99664.37;1714767;83;21202;-77
2022/03/09 00:38:06;;;;;;;6.10;2.92;;;;;;;-3.07;75.87;99671.72;1723029;81;20978;-77
2022/03/09 00:40:34;;;;;;;8.00;4.10;;;;;;;-3.03;76.41;99668.56;1713497;81;20909;-76
2022/03/09 00:43:01;;;;;;;5.30;3.60;;;;;;;-3.05;75.65;99668.78;1716356;83;21013;-76
2022/03/09 00:45:28;;;;;;;9.10;4.08;;;;;;;-3.06;75.22;99666.64;1724681;81;21057;-77
2022/03/09 00:47:57;;;;;;;5.90;3.75;;;;;;;-3.09;74.83;99665.72;1730175;81;21061;-77
2022/03/09 00:50:24;;;;;;;6.03;3.47;;;;;;;-3.11;74.97;99667.84;1718089;81;21020;-77
2022/03/09 00:52:51;;;;;;;5.47;3.58;;;;;;;-3.06;75.58;99669.85;1727419;81;20939;-77
2022/03/09 00:55:18;;;;;;;7.12;4.10;;;;;;;-3.03;74.12;99673.44;1711074;81;20962;-75
2022/03/09 00:57:45;;;;;;;7.30;3.75;;;;;;;-3.15;74.29;99672.02;1727470;81;21365;-75
2022/03/09 01:00:13;;;;;;;7.08;4.03;;;;;;;-3.18;74.62;99664.39;1673120;83;21638;-75
2022/03/09 01:02:42;;;;;;;8.55;3.80;;;;;;;-3.18;74.74;99667.91;1738554;81;20994;-75
2022/03/09 01:05:10;;;;;;;7.45;4.08;;;;;;;-3.13;74.69;99665.88;1665976;84;21660;-77
2022/03/09 01:07:38;;;;;;;6.47;4.03;;;;;;;-3.13;74.36;99669.09;1668030;84;20979;-77
2022/03/09 01:10:06;;;;;;;6.78;4.25;;;;;;;-3.14;74.22;99670.16;1681597;84;21121;-75
2022/03/09 01:12:35;;;;;;;6.25;3.87;;;;;;;-3.22;74.15;99668.05;1676075;84;20944;-75
2022/03/09 01:15:02;;;;;;;7.35;4.03;;;;;;;-3.21;74.75;99669.69;1727312;81;20878;-76
2022/03/09 01:17:31;;;;;;;8.08;3.98;;;;;;;-3.16;75.10;99666.86;1729188;81;20930;-77
2022/03/09 01:19:58;;;;;;;6.78;3.80;;;;;;;-3.15;74.69;99663.94;1728041;81;21031;-77
2022/03/09 01:22:25;;;;;;;7.83;4.58;;;;;;;-3.21;74.79;99662.95;1716851;81;20925;-75
2022/03/09 01:24:52;;;;;;;10.63;4.33;;;;;;;-3.26;75.10;99662.83;1717088;81;21862;-75
2022/03/09 01:27:19;;;;;;;7.40;4.15;;;;;;;-3.28;75.51;99659.53;1729306;81;21112;-76
2022/03/09 01:29:47;;;;;;;7.20;4.87;;;;;;;-3.26;75.30;99653.39;1721167;81;21526;-76
2022/03/09 01:32:15;;;;;;;8.90;4.55;;;;;;;-3.30;75.23;99655.71;1722874;81;21112;-76
2022/03/09 01:34:41;;;;;;;7.53;4.53;;;;;;;-3.32;75.38;99659.66;1724324;81;21058;-76
2022/03/09 01:37:08;;;;;;;5.90;3.62;;;;;;;-3.27;75.66;99661.16;1729517;81;21100;-75
2022/03/09 01:39:36;;;;;;;17.32;5.08;;;;;;;-3.21;75.47;99668.89;1723076;81;21373;-76
2022/03/09 01:42:04;;;;;;;8.10;4.47;;;;;;;-3.29;74.81;99663.25;1730865;81;20957;-76
2022/03/09 01:44:31;;;;;;;8.23;4.53;;;;;;;-3.33;75.10;99665.59;1735378;81;20966;-75
2022/03/09 01:46:58;;;;;;;9.00;4.30;;;;;;;-3.35;74.93;99664.99;1732007;81;21534;-77
2022/03/09 01:49:25;;;;;;;8.23;4.60;;;;;;;-3.35;74.83;99672.25;1711160;81;21569;-75
2022/03/09 01:51:53;;;;;;;7.90;4.60;;;;;;;-3.37;74.60;99672.98;1737505;81;21100;-75
2022/03/09 01:54:21;;;;;;;8.63;4.72;;;;;;;-3.40;74.61;99676.13;1674325;83;21081;-77
2022/03/09 01:56:48;;;;;;;9.90;4.83;;;;;;;-3.42;74.68;99673.66;1688606;84;21011;-76
2022/03/09 01:59:16;;;;;;;7.80;4.87;;;;;;;-3.39;74.89;99677.25;1701033;82;21048;-76
2022/03/09 02:01:45;;;;;;;13.68;4.53;;;;;;;-3.34;74.80;99676.58;1702009;82;21261;-75
2022/03/09 02:04:12;;;;;;;9.93;5.20;;;;;;;-3.33;74.73;99682.28;1685804;83;20948;-76
2022/03/09 02:06:41;;;;;;;10.58;5.15;;;;;;;-3.30;74.61;99679.14;1691451;82;21044;-75
2022/03/09 02:11:56;;;;;;;10.13;5.12;;;;;;;-3.39;74.63;99677.77;1687587;82;20882;-75
2022/03/09 02:14:37;;;;;;;9.15;4.40;;;;;;;-3.36;75.08;99678.15;1688207;82;21167;-76
2022/03/09 02:17:13;;;;;;;5.80;3.83;;;;;;;-3.27;75.04;99684.08;1700787;82;20886;-77
2022/03/09 02:19:41;;;;;;;10.10;5.58;;;;;;;-3.21;74.67;99683.71;1691132;82;21071;-77
2022/03/09 02:22:25;;;;;;;9.43;5.15;;;;;;;-3.28;74.19;99687.83;1690311;82;20991;-77
2022/03/09 02:24:53;;;;;;;9.75;5.00;;;;;;;-3.37;74.44;99691.85;1696257;83;21104;-75
2022/03/09 02:27:23;;;;;;;12.20;6.22;;;;;;;-3.48;74.43;99691.53;1696664;82;21817;-75
2022/03/09 02:29:51;;;;;;;8.18;4.58;;;;;;;-3.55;74.45;99693.49;1683256;83;21068;-77
2022/03/09 02:32:18;;;;;;;13.50;6.03;;;;;;;-3.62;74.62;99696.25;1696765;82;21543;-77
2022/03/09 02:34:46;;;;;;;11.38;5.45;;;;;;;-3.68;74.74;99701.16;1692813;82;21086;-76
2022/03/09 02:37:13;;;;;;;10.58;5.25;;;;;;;-3.68;74.82;99699.81;1710635;83;20966;-76
2022/03/09 02:39:40;;;;;;;8.45;5.05;;;;;;;-3.69;74.98;99700.87;1690639;82;21623;-75
2022/03/09 02:42:08;;;;;;;10.23;5.40;;;;;;;-3.68;75.20;99704.69;1689468;84;20999;-77
2022/03/09 02:44:35;;;;;;;10.95;4.97;;;;;;;-3.67;75.03;99711.71;1713964;83;20985;-77
2022/03/09 02:47:03;;;;;;;12.10;5.85;;;;;;;-3.71;74.97;99715.08;1701897;83;21093;-77
2022/03/09 02:49:31;;;;;;;14.07;6.10;;;;;;;-3.74;75.29;99720.39;1690771;83;21001;-76
2022/03/09 02:51:58;;;;;;;7.33;4.55;;;;;;;-3.71;75.50;99709.17;1693595;83;21907;-76
2022/03/09 02:54:25;;;;;;;10.98;5.95;;;;;;;-3.68;75.61;99711.42;1690418;83;21040;-76
2022/03/09 02:56:53;;;;;;;10.78;5.85;;;;;;;-3.64;75.57;99715.02;1695983;83;21005;-76
2022/03/09 02:59:20;;;;;;;15.20;5.97;;;;;;;-3.70;75.53;99714.85;1682207;83;21064;-76
2022/03/09 03:01:48;;;;;;;12.55;5.90;;;;;;;-3.69;75.75;99716.52;1694195;82;21570;-76
2022/03/09 03:04:15;;;;;;;9.13;5.42;;;;;;;-3.63;75.93;99718.03;1709778;82;21502;-76
2022/03/09 03:06:43;;;;;;;11.20;5.20;;;;;;;-3.63;75.67;99722.07;1708493;82;20938;-76
2022/03/09 03:09:11;;;;;;;11.08;6.20;;;;;;;-3.63;75.79;99720.72;1697842;82;21121;-75
2022/03/09 03:11:39;;;;;;;13.93;6.95;;;;;;;-3.64;75.87;99724.44;1691119;82;21205;-76
2022/03/09 03:14:09;;;;;;;10.43;5.60;;;;;;;-3.57;76.10;99722.52;1703238;82;21089;-76
2022/03/09 03:16:36;;;;;;;9.88;5.15;;;;;;;-3.51;76.13;99727.02;1708932;83;21203;-76
2022/03/09 03:19:03;;;;;;;8.90;5.55;;;;;;;-3.47;75.68;99726.05;1689601;82;20998;-76
2022/03/09 03:21:32;;;;;;;11.93;6.53;;;;;;;-3.51;75.64;99731.06;1698599;82;20949;-76
2022/03/09 03:23:59;;;;;;;10.23;6.17;;;;;;;-3.51;75.71;99729.71;1696769;82;21479;-76
2022/03/09 03:26:28;;;;;;;9.80;5.72;;;;;;;-3.48;76.02;99727.92;1687010;82;21087;-76
2022/03/09 03:28:55;;;;;;;11.22;6.40;;;;;;;-3.40;76.06;99726.83;1687708;82;21274;-76
2022/03/09 03:31:22;;;;;;;10.72;5.55;;;;;;;-3.39;75.68;99728.46;1683166;82;21166;-76
2022/03/09 03:33:49;;;;;;;10.03;5.62;;;;;;;-3.42;75.85;99724.87;1697046;82;21223;-76
2022/03/09 03:36:16;;;;;;;11.53;6.00;;;;;;;-3.43;75.88;99721.34;1696947;82;21590;-75
2022/03/09 03:38:44;;;;;;;11.15;6.12;;;;;;;-3.40;76.08;99723.30;1683190;82;21032;-77
2022/03/09 03:41:11;;;;;;;10.40;5.80;;;;;;;-3.37;76.18;99724.19;1700086;82;21602;-77
2022/03/09 03:43:38;;;;;;;11.18;6.58;;;;;;;-3.33;76.36;99722.20;1707776;82;20958;-76
2022/03/09 03:46:05;;;;;;;10.05;6.28;;;;;;;-3.27;76.43;99724.52;1691956;82;20991;-76
2022/03/09 03:48:33;;;;;;;13.40;6.80;;;;;;;-3.23;76.49;99728.42;1699423;82;21488;-77
2022/03/09 03:51:00;;;;;;;11.63;5.62;;;;;;;-3.16;76.61;99726.17;1707669;82;21526;-76
2022/03/09 03:53:27;;;;;;;12.78;6.97;;;;;;;-3.11;76.62;99719.06;1706459;82;21270;-75
2022/03/09 03:55:54;;;;;;;12.25;6.83;;;;;;;-3.08;76.48;99726.70;1686409;82;21113;-76
2022/03/09 03:58:22;;;;;;;12.65;6.95;;;;;;;-3.03;76.54;99725.19;1692414;82;21021;-76
2022/03/09 04:00:50;;;;;;;11.25;7.15;;;;;;;-3.01;76.35;99728.49;1700699;82;21525;-78
2022/03/09 04:03:18;;;;;;;11.55;6.95;;;;;;;-3.08;75.83;99724.01;1693392;82;21024;-76
2022/03/09 04:05:45;;;;;;;12.53;7.08;;;;;;;-3.21;75.94;99727.66;1682647;82;21679;-76
2022/03/09 04:08:12;;;;;;;16.30;6.83;;;;;;;-3.28;76.22;99733.66;1687690;82;20987;-76
2022/03/09 04:10:41;;;;;;;13.48;7.72;;;;;;;-3.31;76.50;99731.41;1691822;82;21000;-75
2022/03/09 04:13:08;;;;;;;11.73;6.33;;;;;;;-3.40;76.71;99722.78;1691786;82;21055;-76
2022/03/09 04:15:35;;;;;;;13.43;7.30;;;;;;;-3.45;77.45;99730.19;1684112;83;21684;-76
2022/03/09 04:18:03;;;;;;;12.78;7.45;;;;;;;-3.52;77.91;99729.94;1695325;82;21705;-76
2022/03/09 04:20:31;;;;;;;11.35;7.20;;;;;;;-3.57;78.19;99725.22;1697150;82;21510;-76
2022/03/09 04:22:58;;;;;;;11.22;6.83;;;;;;;-3.60;78.28;99722.42;1679369;83;21072;-76
2022/03/09 04:25:26;;;;;;;12.23;7.05;;;;;;;-3.60;78.36;99725.13;1690762;83;21049;-76
2022/03/09 04:27:53;;;;;;;12.40;6.85;;;;;;;-3.57;78.47;99727.40;1709865;82;20942;-75
2022/03/09 04:30:20;;;;;;;12.68;7.10;;;;;;;-3.58;78.66;99734.33;1705957;82;21222;-75
2022/03/09 04:32:48;;;;;;;12.37;7.12;;;;;;;-3.61;78.99;99733.42;1699924;82;21528;-76
2022/03/09 04:35:15;;;;;;;9.18;6.12;;;;;;;-3.63;78.99;99735.00;1691692;82;20985;-75
2022/03/09 04:37:43;;;;;;;11.60;6.20;;;;;;;-3.64;79.14;99733.87;1694278;82;21174;-76
2022/03/09 04:40:11;;;;;;;16.02;8.35;;;;;;;-3.65;79.15;99741.66;1688087;84;21013;-75
2022/03/09 04:42:40;;;;;;;11.45;6.53;;;;;;;-3.63;79.50;99740.38;1687844;84;21503;-75
2022/03/09 04:45:07;;;;;;;10.85;6.33;;;;;;;-3.56;79.52;99754.63;1689657;84;21076;-76
2022/03/09 04:47:35;;;;;;;12.00;5.87;;;;;;;-3.57;79.29;99750.30;1689859;84;21133;-75
2022/03/09 04:50:02;;;;;;;9.30;6.15;;;;;;;-3.62;79.30;99754.17;1644071;85;21006;-76
2022/03/09 04:52:29;;;;;;;10.55;5.67;;;;;;;-3.64;79.56;99754.08;1641694;85;21007;-76
2022/03/09 04:54:56;;;;;;;8.35;5.95;;;;;;;-3.67;79.36;99752.66;1686973;84;21853;-75
2022/03/09 04:57:23;;;;;;;10.10;5.95;;;;;;;-3.76;79.47;99754.80;1700472;82;20980;-75
2022/03/09 04:59:52;;;;;;;9.30;5.03;;;;;;;-3.85;79.64;99756.93;1687270;82;21676;-76
2022/03/09 05:02:18;;;;;;;9.83;6.03;;;;;;;-3.86;79.87;99763.88;1705835;83;21080;-74
2022/03/09 05:04:47;;;;;;;14.00;7.00;;;;;;;-3.85;80.02;99764.17;1684158;84;20974;-76
2022/03/09 05:07:14;;;;;;;9.83;5.95;;;;;;;-3.80;80.00;99772.42;1646636;84;21648;-76
2022/03/09 05:09:41;;;;;;;10.58;5.05;;;;;;;-3.81;79.65;99768.93;1643533;85;21113;-76
2022/03/09 05:12:09;;;;;;;8.50;5.25;;;;;;;-3.83;79.61;99770.17;1699953;82;21600;-76
2022/03/09 05:14:35;;;;;;;9.03;5.20;;;;;;;-3.84;79.68;99774.73;1694028;82;20966;-75
2022/03/09 05:17:03;;;;;;;9.10;5.53;;;;;;;-3.83;79.69;99779.60;1706369;82;20958;-76
2022/03/09 05:19:30;;;;;;;9.95;6.08;;;;;;;-3.77;79.66;99780.06;1700526;82;21258;-74
2022/03/09 05:21:57;;;;;;;10.45;6.08;;;;;;;-3.74;79.68;99788.25;1693989;83;21545;-76
2022/03/09 05:24:25;;;;;;;10.13;5.60;;;;;;;-3.70;79.31;99788.13;1697607;82;20929;-74
2022/03/09 05:26:52;;;;;;;9.70;5.87;;;;;;;-3.71;79.17;99789.16;1690220;84;21062;-75
2022/03/09 05:29:21;;;;;;;7.75;4.47;;;;;;;-3.75;78.82;99791.45;1706830;83;21202;-76
2022/03/09 05:31:48;;;;;;;9.15;5.92;;;;;;;-3.81;78.90;99793.17;1701293;82;21191;-78
2022/03/09 05:34:15;;;;;;;7.67;5.10;;;;;;;-3.82;79.03;99798.23;1696123;82;21033;-76
2022/03/09 05:36:42;;;;;;;14.45;5.58;;;;;;;-3.81;79.06;99797.21;1687659;83;21545;-76
2022/03/09 05:39:10;;;;;;;9.20;5.40;;;;;;;-3.77;79.14;99797.58;1704775;83;20969;-75
2022/03/09 05:41:38;;;;;;;7.47;5.05;;;;;;;-3.75;78.86;99802.23;1700633;83;21414;-78
2022/03/09 05:44:06;;;;;;;13.10;5.92;;;;;;;-3.73;78.87;99806.88;1700966;82;21157;-76
2022/03/09 05:46:33;;;;;;;9.43;5.35;;;;;;;-3.69;78.77;99809.45;1702402;82;21052;-76
2022/03/09 05:49:01;;;;;;;9.33;5.33;;;;;;;-3.71;78.28;99817.44;1707199;82;21115;-77
2022/03/09 05:51:29;;;;;;;12.30;5.72;;;;;;;-3.76;78.57;99822.14;1686358;82;21064;-75
2022/03/09 05:53:57;;;;;;;8.58;4.90;;;;;;;-3.73;78.68;99818.17;1700022;82;21227;-74
2022/03/09 05:56:24;;;;;;;9.93;5.58;;;;;;;-3.71;78.49;99813.39;1705959;83;22200;-76
2022/03/09 05:58:51;;;;;;;10.55;5.85;;;;;;;-3.78;77.98;99817.48;1685562;82;20921;-76
2022/03/09 06:01:21;;;;;;;12.43;6.15;;;;;;;-3.86;78.14;99819.09;1685159;84;21469;-77
2022/03/09 06:03:48;;;;;;;17.62;7.65;;;;;;;-3.85;78.61;99822.08;1683399;82;21109;-75
2022/03/09 06:06:15;;;;;;;10.75;5.97;;;;;;;-3.79;78.59;99821.23;1686110;82;20939;-76
2022/03/09 06:08:42;;;;;;;12.45;6.60;;;;;;;-3.75;78.33;99834.55;1686756;82;21221;-76
2022/03/09 06:11:10;;;;;;;10.58;6.65;;;;;;;-3.80;78.14;99834.37;1652598;84;21124;-75
2022/03/09 06:13:37;;;;;;;12.47;6.40;;;;;;;-3.79;78.52;99835.50;1688019;84;21067;-75
2022/03/09 06:16:05;;;;;;;11.68;6.15;;;;;;;-3.74;78.27;99838.91;1676133;83;21097;-75
2022/03/09 06:18:32;;;;;;;11.80;6.97;;;;;;;-3.69;78.64;99836.91;1692654;82;21521;-76
2022/03/09 06:21:00;;;;;;;9.35;6.15;;;;;;;-3.63;78.19;99840.06;1702707;82;21650;-76
2022/03/09 06:23:27;;;;;;;12.80;6.47;;;;;;;-3.56;78.34;99846.25;1701619;82;20955;-76
2022/03/09 06:25:54;;;;;;;12.37;7.15;;;;;;;-3.58;77.72;99844.80;1708437;83;20978;-75
2022/03/09 06:28:21;;;;;;;15.28;6.92;;;;;;;-3.69;77.65;99842.30;1702752;82;21459;-76
2022/03/09 06:30:49;;;;;;;12.98;6.97;;;;;;;-3.69;78.03;99850.38;1700874;83;20968;-77
2022/03/09 06:33:16;;;;;;;14.65;7.03;;;;;;;-3.67;77.96;99847.75;1697748;83;21146;-76
2022/03/09 06:35:43;;;;;;;12.18;7.40;;;;;;;-3.61;77.95;99858.20;1694075;83;21167;-75
2022/03/09 06:38:10;;;;;;;14.00;6.60;;;;;;;-3.58;77.71;99848.84;1694578;82;21503;-76
2022/03/09 06:40:38;;;;;;;14.78;6.78;;;;;;;-3.57;77.51;99853.20;1697809;82;20945;-77
2022/03/09 06:43:05;;;;;;;14.15;7.08;;;;;;;-3.66;76.85;99852.63;1689014;82;21076;-76
2022/03/09 06:45:32;;;;;;;11.18;6.28;;;;;;;-3.71;77.19;99846.56;1700108;83;21134;-76
2022/03/09 06:48:00;;;;;;;13.93;7.28;;;;;;;-3.70;77.39;99848.20;1707642;83;20947;-76
2022/03/09 06:50:27;;;;;;;15.48;7.83;;;;;;;-3.69;77.77;99854.42;1698080;83;20980;-76
2022/03/09 06:52:55;;;;;;;14.45;8.88;;;;;;;-3.57;78.05;99846.47;1695940;82;20997;-76
2022/03/09 06:55:22;;;;;;;13.55;7.33;;;;;;;-3.44;77.98;99846.37;1688279;83;21395;-77
2022/03/09 06:57:49;;;;;;;16.97;8.75;;;;;;;-3.29;77.37;99845.20;1687791;82;21569;-77
2022/03/09 07:00:16;;;;;;;18.10;8.30;;;;;;;-3.39;76.60;99843.52;1685769;83;20937;-77
2022/03/09 07:02:43;;;;;;;13.45;7.62;;;;;;;-3.47;76.94;99842.77;1690426;82;21035;-76
2022/03/09 07:05:10;;;;;;;15.70;7.53;;;;;;;-3.44;77.39;99851.76;1686953;84;21056;-77
2022/03/09 07:07:39;;;;;;;16.52;8.93;;;;;;;-3.28;77.73;99850.92;1657883;85;20949;-77
2022/03/09 07:10:10;;;;;;;12.35;7.05;;;;;;;-3.18;77.14;99855.81;1701563;82;22238;-76
2022/03/09 07:12:36;;;;;;;13.13;7.33;;;;;;;-3.14;76.63;99869.68;1684674;84;20956;-76
2022/03/09 07:15:04;;;;;;;15.98;8.25;;;;;;;-3.24;76.51;99860.74;1677406;83;20964;-76
2022/03/09 07:17:31;;;;;;;15.68;7.65;;;;;;;-3.28;76.81;99858.17;1696266;82;21111;-76
2022/03/09 07:19:58;;;;;;;16.52;8.80;;;;;;;-3.29;77.27;99860.03;1695696;82;21030;-77
2022/03/09 07:22:25;;;;;;;12.65;7.62;;;;;;;-3.25;77.51;99861.26;1700256;83;21594;-77
2022/03/09 07:24:52;;;;;;;16.82;7.45;;;;;;;-3.13;77.97;99861.88;1707563;82;21089;-77
2022/03/09 07:27:20;;;;;;;14.87;8.75;;;;;;;-2.97;78.20;99863.20;1696286;82;21097;-76
2022/03/09 07:29:47;;;;;;;17.35;8.45;;;;;;;-2.90;76.57;99857.75;1694968;82;21543;-77
2022/03/09 07:32:14;;;;;;;12.95;8.23;;;;;;;-2.97;76.92;99850.52;1689769;82;21100;-77
2022/03/09 07:34:41;;;;;;;15.70;7.92;;;;;;;-2.99;76.97;99855.86;1692221;82;21420;-76
2022/03/09 07:37:08;;;;;;;13.85;7.58;;;;;;;-2.98;77.34;99850.23;1692451;83;21021;-76
2022/03/09 07:39:36;;;;;;;13.75;8.25;;;;;;;-2.88;77.25;99858.36;1696173;82;21041;-76
2022/03/09 07:42:04;;;;;;;14.30;7.35;;;;;;;-2.86;77.43;99846.28;1698881;82;20940;-76
2022/03/09 07:44:31;;;;;;;13.80;8.40;;;;;;;-2.80;77.38;99860.77;1684749;83;21006;-77
2022/03/09 07:46:59;;;;;;;15.93;8.38;;;;;;;-2.81;77.24;99850.48;1688097;82;21235;-77
2022/03/09 07:49:26;;;;;;;16.23;9.98;;;;;;;-2.82;77.19;99847.50;1700546;82;21046;-76
2022/03/09 07:51:53;;;;;;;14.95;9.08;;;;;;;-2.84;76.82;99852.80;1690729;83;21113;-76
2022/03/09 07:54:20;;;;;;;18.50;10.20;;;;;;;-2.93;77.11;99850.91;1689724;84;20927;-76
2022/03/09 07:56:49;;;;;;;13.00;7.87;;;;;;;-2.88;77.42;99850.27;1689360;84;21568;-76
2022/03/09 07:59:16;;;;;;;15.98;9.43;;;;;;;-2.79;77.51;99846.22;1682348;83;21354;-77
2022/03/09 08:01:44;;;;;;;15.60;9.18;;;;;;;-2.79;76.81;99848.08;1701610;83;20969;-77
2022/03/09 08:04:11;;;;;;;15.60;8.78;;;;;;;-2.78;77.31;99850.55;1689114;83;21060;-77
2022/03/09 08:06:40;;;;;;;19.00;10.18;;;;;;;-2.67;77.76;99850.87;1689306;82;21049;-76
2022/03/09 08:09:08;;;;;;;14.58;8.03;;;;;;;-2.46;77.93;99850.42;1691191;82;21174;-77
2022/03/09 08:11:35;;;;;;;18.37;9.85;;;;;;;-2.24;77.53;99848.63;1691648;83;21586;-76
2022/03/09 08:14:02;;;;;;;14.35;9.38;;;;;;;-2.28;75.96;99847.42;1708680;83;21052;-77
2022/03/09 08:16:30;;;;;;;20.10;10.18;;;;;;;-2.32;76.12;99843.00;1699998;83;21178;-78
2022/03/09 08:18:57;;;;;;;16.20;9.55;;;;;;;-2.31;76.17;99843.83;1708974;82;21028;-77
2022/03/09 08:21:24;;;;;;;21.55;10.48;;;;;;;-2.25;75.50;99844.81;1696622;83;21099;-77
2022/03/09 08:23:51;;;;;;;15.15;9.88;;;;;;;-2.26;76.16;99848.55;1699197;83;21143;-76
2022/03/09 08:26:18;;;;;;;17.55;9.68;;;;;;;-2.08;76.21;99849.03;1696146;83;21434;-77
2022/03/09 08:28:46;;;;;;;13.00;8.75;;;;;;;-1.92;75.97;99857.05;1682243;82;20966;-77
2022/03/09 08:31:13;;;;;;;20.00;9.80;;;;;;;-1.89;74.68;99851.70;1701431;82;20969;-76
2022/03/09 08:33:42;;;;;;;15.58;8.95;;;;;;;-1.82;75.09;99855.14;1685936;83;21463;-77
2022/03/09 08:36:11;;;;;;;19.05;9.08;;;;;;;-1.71;74.86;99853.00;1682646;83;21237;-76
2022/03/09 08:38:39;;;;;;;15.95;10.35;;;;;;;-1.60;74.92;99851.39;1703904;83;20934;-77
2022/03/09 08:41:06;;;;;;;17.85;9.63;;;;;;;-1.60;73.12;99847.86;1689285;82;21056;-78
2022/03/09 08:43:33;;;;;;;15.60;9.85;;;;;;;-1.68;73.93;99851.73;1699985;83;21045;-77
2022/03/09 08:46:00;;;;;;;17.92;9.83;;;;;;;-1.64;74.07;99854.80;1714207;83;20997;-77
2022/03/09 08:48:27;;;;;;;15.10;10.18;;;;;;;-1.58;74.31;99848.46;1684172;83;21226;-77
2022/03/09 08:50:55;;;;;;;17.02;10.08;;;;;;;-1.57;73.67;99854.19;1690182;82;20879;-77
2022/03/09 08:53:22;;;;;;;21.15;10.68;;;;;;;-1.58;74.19;99855.22;1689671;82;21475;-77
2022/03/09 08:55:49;;;;;;;13.05;8.23;;;;;;;-1.43;74.30;99858.84;1659670;84;20988;-77
2022/03/09 08:58:16;;;;;;;15.08;9.50;;;;;;;-1.29;74.24;99857.27;1645825;85;21251;-78
2022/03/09 09:00:44;;;;;;;18.00;10.60;;;;;;;-1.21;73.27;99857.48;1709135;83;21296;-76
2022/03/09 09:03:11;;;;;;;16.07;9.13;;;;;;;-1.30;72.56;99855.12;1705728;82;20930;-77
2022/03/09 09:05:38;;;;;;;16.97;9.30;;;;;;;-1.43;72.47;99850.72;1694810;82;20941;-77
2022/03/09 09:08:06;;;;;;;14.55;8.20;;;;;;;-1.55;72.69;99852.59;1682750;83;21083;-77
2022/03/09 09:10:36;;;;;;;18.52;9.93;;;;;;;-1.63;72.64;99856.44;1691827;82;20954;-77
2022/03/09 09:13:05;;;;;;;14.63;9.15;;;;;;;-1.66;73.47;99859.61;1687096;82;21258;-77
2022/03/09 09:15:33;;;;;;;15.53;8.43;;;;;;;-1.54;73.67;99853.72;1698542;83;20889;-76
2022/03/09 09:18:02;;;;;;;14.65;8.73;;;;;;;-1.37;73.75;99854.39;1678178;83;21647;-77
2022/03/09 09:20:29;;;;;;;14.25;8.18;;;;;;;-1.15;73.21;99859.23;1654602;86;20903;-78
2022/03/09 09:22:57;;;;;;;15.75;8.25;;;;;;;-1.02;72.88;99849.55;1687420;84;20957;-76
2022/03/09 09:25:25;;;;;;;13.62;8.35;;;;;;;-0.88;72.69;99857.42;1710933;83;21262;-78
2022/03/09 09:27:54;;;;;;;14.78;9.15;;;;;;;-0.76;70.75;99864.19;1689664;82;21189;-77
2022/03/09 09:30:21;;;;;;;15.20;8.88;;;;;;;-0.91;70.25;99853.84;1703620;82;21134;-77
2022/03/09 09:32:49;;;;;;;15.15;9.63;;;;;;;-0.99;70.87;99861.25;1690940;82;20953;-76
2022/03/09 09:35:16;;;;;;;12.98;8.58;;;;;;;-0.86;71.62;99858.02;1688433;84;21006;-76
2022/03/09 09:37:44;;;;;;;13.25;8.68;;;;;;;-0.71;70.83;99854.84;1682461;83;22033;-77
2022/03/09 09:40:13;;;;;;;14.05;8.55;;;;;;;-0.54;69.58;99860.88;1648812;85;21045;-75
2022/03/09 09:42:40;;;;;;;16.57;9.25;;;;;;;-0.62;69.38;99849.89;1663486;83;21019;-77
2022/03/09 09:45:08;;;;;;;13.30;8.00;;;;;;;-0.57;70.03;99860.00;1644424;85;20957;-77
2022/03/09 09:47:35;;;;;;;18.73;9.38;;;;;;;-0.67;69.16;99856.54;1650339;85;21448;-76
2022/03/09 09:50:03;;;;;;;12.50;7.40;;;;;;;-0.79;69.55;99858.73;1655128;85;21218;-76
2022/03/09 09:52:33;;;;;;;15.10;8.75;;;;;;;-0.86;70.19;99865.63;1688922;84;21562;-77
2022/03/09 09:55:01;;;;;;;15.85;8.75;;;;;;;-0.76;70.42;99860.97;1714577;83;20890;-77
2022/03/09 09:57:30;;;;;;;16.80;8.88;;;;;;;-0.54;70.32;99860.35;1694078;83;20953;-77
2022/03/09 09:59:58;;;;;;;16.62;9.93;;;;;;;-0.35;69.93;99858.02;1684131;83;20942;-77
2022/03/09 10:02:25;;;;;;;15.98;8.40;;;;;;;-0.23;69.20;99857.47;1691612;82;21251;-77
2022/03/09 10:04:53;;;;;;;14.80;8.93;;;;;;;-0.16;68.75;99854.62;1681760;82;20962;-76
2022/03/09 10:07:20;;;;;;;15.43;8.55;;;;;;;-0.09;68.39;99862.09;1695174;83;21344;-77
2022/03/09 10:09:47;;;;;;;14.05;8.25;;;;;;;-0.04;68.03;99853.23;1698042;83;21053;-77
2022/03/09 10:12:15;;;;;;;13.15;8.08;;;;;;;-0.05;67.34;99848.88;1698423;82;21052;-78
2022/03/09 10:14:50;;;;;;;14.07;8.53;;;;;;;0.03;68.34;99855.80;1674519;83;21261;-77
2022/03/09 10:17:27;;;;;;;12.63;7.65;;;;;;;0.21;67.60;99860.19;1710449;83;21396;-77
2022/03/09 10:20:02;;;;;;;14.60;7.95;;;;;;;0.41;67.86;99863.01;1703538;83;20987;-76
2022/03/09 10:22:33;;;;;;;9.78;6.25;;;;;;;0.66;67.47;99867.22;1701767;83;21570;-77
2022/03/09 10:25:16;;;;;;;11.55;7.75;;;;;;;0.83;66.51;99863.16;1702561;83;20946;-77
2022/03/09 10:27:55;;;;;;;10.45;7.30;;;;;;;0.84;63.81;99864.27;1698939;82;21502;-78
2022/03/09 10:30:31;;;;;;;11.70;7.08;;;;;;;0.64;64.82;99867.99;1688624;82;21413;-76
2022/03/09 10:33:00;;;;;;;12.10;6.87;;;;;;;0.73;65.60;99868.69;1691172;82;21029;-76
2022/03/09 10:35:36;;;;;;;16.82;8.23;;;;;;;0.88;64.08;99868.67;1714268;83;21511;-76
2022/03/09 10:38:07;;;;;;;12.40;7.47;;;;;;;0.89;63.58;99873.02;1704454;83;21498;-77
2022/03/09 10:40:43;;;;;;;10.00;6.47;;;;;;;0.82;62.87;99871.03;1681669;83;21179;-76
2022/03/09 10:43:18;;;;;;;12.40;6.60;;;;;;;0.68;63.47;99869.96;1692012;82;21224;-75
2022/03/09 10:46:11;;;;;;;11.88;7.03;;;;;;;0.82;64.17;99870.47;1706956;82;21045;-76
2022/03/09 10:49:00;;;;;;;14.25;8.20;;;;;;;1.09;64.05;99868.45;1714629;83;20991;-76
2022/03/09 10:51:35;;;;;;;12.40;7.15;;;;;;;1.23;63.36;99869.45;1706015;82;21420;-76
2022/03/09 10:54:09;;;;;;;11.20;7.20;;;;;;;1.14;60.96;99873.68;1711795;83;21173;-75
2022/03/09 10:56:37;;;;;;;10.13;6.15;;;;;;;0.83;61.34;99864.00;1698785;83;21186;-76
2022/03/09 10:59:20;;;;;;;8.80;6.17;;;;;;;0.78;61.24;99865.79;1691122;82;21537;-75
2022/03/09 11:02:08;;;;;;;10.78;7.20;;;;;;;0.76;62.19;99876.89;1699535;82;21025;-75
2022/03/09 11:04:37;;;;;;;13.03;6.75;;;;;;;0.93;62.06;99869.28;1697841;83;21006;-76
2022/03/09 11:07:04;;;;;;;8.25;5.17;;;;;;;1.21;62.27;99873.78;1702597;83;21300;-75
2022/03/09 11:09:33;;;;;;;8.18;6.03;;;;;;;1.46;61.40;99873.05;1705244;83;21130;-75
2022/03/09 11:11:59;;;;;;;10.58;6.55;;;;;;;1.58;61.00;99862.08;1608894;86;21082;-75
2022/03/09 11:14:26;;;;;;;10.53;7.08;;;;;;;1.69;60.83;99866.56;1702636;82;21083;-76
2022/03/09 11:17:00;;;;;;;8.83;5.65;;;;;;;1.65;59.06;99865.44;1700476;82;21423;-77
2022/03/09 11:19:24;;;;;;;11.05;6.87;;;;;;;1.35;58.17;99866.64;1703205;82;21896;-75
2022/03/09 11:21:51;;;;;;;8.55;5.35;;;;;;;0.91;58.10;99863.27;1686428;82;21112;-75
2022/03/09 11:24:19;;;;;;;8.73;4.92;;;;;;;0.59;59.20;99866.02;1712108;83;20901;-76
2022/03/09 11:26:53;;;;;;;13.68;6.80;;;;;;;0.45;60.20;99870.92;1692831;82;20969;-76
2022/03/09 11:29:35;;;;;;;13.48;6.87;;;;;;;0.38;60.63;99865.66;1711598;83;20993;-77
2022/03/09 11:32:07;;;;;;;8.00;5.58;;;;;;;0.42;60.96;99867.34;1689554;82;22094;-76
2022/03/09 11:34:46;;;;;;;9.93;5.85;;;;;;;0.53;60.97;99861.59;1688707;83;21427;-76
2022/03/09 11:37:18;;;;;;;9.45;6.28;;;;;;;0.54;60.27;99864.58;1694070;82;21014;-76